sensor_id;sensor_type;location;lat;lon;timestamp;temperature;humidity
8945;DHT22;4507;40.232;29.132;2022-08-11T00:02:26;24.30;81.70
8945;DHT22;4507;40.232;29.132;2022-08-11T00:04:55;24.30;81.80
8945;DHT22;4507;40.232;29.132;2022-08-11T00:07:24;24.30;81.90
8945;DHT22;4507;40.232;29.132;2022-08-11T00:09:53;24.30;81.80
8945;DHT22;4507;40.232;29.132;2022-08-11T00:12:23;24.30;81.80
8945;DHT22;4507;40.232;29.132;2022-08-11T00:14:56;24.10;81.60
8945;DHT22;4507;40.232;29.132;2022-08-11T00:17:26;24.20;81.70
8945;DHT22;4507;40.232;29.132;2022-08-11T00:19:59;24.20;81.70
8945;DHT22;4507;40.232;29.132;2022-08-11T00:22:42;24.10;81.70
8945;DHT22;4507;40.232;29.132;2022-08-11T00:25:30;24.10;81.90
8945;DHT22;4507;40.232;29.132;2022-08-11T00:28:02;24.00;82.00
8945;DHT22;4507;40.232;29.132;2022-08-11T00:30:38;24.00;82.10
8945;DHT22;4507;40.232;29.132;2022-08-11T00:33:08;24.00;82.30
8945;DHT22;4507;40.232;29.132;2022-08-11T00:35:37;24.00;82.50
8945;DHT22;4507;40.232;29.132;2022-08-11T00:38:24;23.90;82.70
8945;DHT22;4507;40.232;29.132;2022-08-11T00:40:54;23.90;82.90
8945;DHT22;4507;40.232;29.132;2022-08-11T00:43:27;23.90;83.00
8945;DHT22;4507;40.232;29.132;2022-08-11T00:46:07;23.80;83.00
8945;DHT22;4507;40.232;29.132;2022-08-11T00:48:39;23.80;83.20
8945;DHT22;4507;40.232;29.132;2022-08-11T00:51:14;23.70;83.20
8945;DHT22;4507;40.232;29.132;2022-08-11T00:53:48;23.80;83.40
8945;DHT22;4507;40.232;29.132;2022-08-11T00:56:31;23.70;83.30
8945;DHT22;4507;40.232;29.132;2022-08-11T00:59:22;23.70;83.50
8945;DHT22;4507;40.232;29.132;2022-08-11T01:05:10;23.70;83.90
8945;DHT22;4507;40.232;29.132;2022-08-11T01:13:54;23.60;84.20
8945;DHT22;4507;40.232;29.132;2022-08-11T01:16:36;23.60;84.30
8945;DHT22;4507;40.232;29.132;2022-08-11T01:33:22;23.40;85.10
8945;DHT22;4507;40.232;29.132;2022-08-11T01:38:46;23.50;85.50
8945;DHT22;4507;40.232;29.132;2022-08-11T01:41:25;23.50;85.70
8945;DHT22;4507;40.232;29.132;2022-08-11T01:44:22;23.50;85.70
8945;DHT22;4507;40.232;29.132;2022-08-11T01:47:08;23.50;85.80
8945;DHT22;4507;40.232;29.132;2022-08-11T01:50:02;23.50;85.80
8945;DHT22;4507;40.232;29.132;2022-08-11T01:52:39;23.50;86.00
8945;DHT22;4507;40.232;29.132;2022-08-11T01:55:17;23.50;86.00
8945;DHT22;4507;40.232;29.132;2022-08-11T01:57:52;23.50;86.80
8945;DHT22;4507;40.232;29.132;2022-08-11T02:00:25;23.40;86.10
8945;DHT22;4507;40.232;29.132;2022-08-11T02:02:57;23.40;86.10
8945;DHT22;4507;40.232;29.132;2022-08-11T02:05:35;23.40;86.20
8945;DHT22;4507;40.232;29.132;2022-08-11T02:08:09;23.40;86.20
8945;DHT22;4507;40.232;29.132;2022-08-11T02:10:42;23.40;86.20
8945;DHT22;4507;40.232;29.132;2022-08-11T02:13:35;23.40;86.30
8945;DHT22;4507;40.232;29.132;2022-08-11T02:16:12;23.30;86.20
8945;DHT22;4507;40.232;29.132;2022-08-11T02:18:45;23.30;86.10
8945;DHT22;4507;40.232;29.132;2022-08-11T02:21:36;23.30;86.10
8945;DHT22;4507;40.232;29.132;2022-08-11T02:24:27;23.20;86.00
8945;DHT22;4507;40.232;29.132;2022-08-11T02:26:59;23.20;86.00
8945;DHT22;4507;40.232;29.132;2022-08-11T02:29:31;23.10;86.10
8945;DHT22;4507;40.232;29.132;2022-08-11T02:32:04;23.10;86.30
8945;DHT22;4507;40.232;29.132;2022-08-11T02:35:01;23.10;86.40
8945;DHT22;4507;40.232;29.132;2022-08-11T02:37:36;23.00;87.10
8945;DHT22;4507;40.232;29.132;2022-08-11T02:40:15;23.10;86.70
8945;DHT22;4507;40.232;29.132;2022-08-11T02:42:54;22.90;86.70
8945;DHT22;4507;40.232;29.132;2022-08-11T02:45:30;22.90;87.00
8945;DHT22;4507;40.232;29.132;2022-08-11T02:48:05;22.90;87.30
8945;DHT22;4507;40.232;29.132;2022-08-11T02:50:56;22.90;87.40
8945;DHT22;4507;40.232;29.132;2022-08-11T02:53:29;22.90;87.60
8945;DHT22;4507;40.232;29.132;2022-08-11T02:56:01;22.90;87.60
8945;DHT22;4507;40.232;29.132;2022-08-11T02:58:40;22.90;87.70
8945;DHT22;4507;40.232;29.132;2022-08-11T03:01:12;23.00;87.90
8945;DHT22;4507;40.232;29.132;2022-08-11T03:03:48;22.90;88.00
8945;DHT22;4507;40.232;29.132;2022-08-11T03:06:22;22.90;88.00
8945;DHT22;4507;40.232;29.132;2022-08-11T03:08:52;23.00;88.20
8945;DHT22;4507;40.232;29.132;2022-08-11T03:11:25;23.00;88.10
8945;DHT22;4507;40.232;29.132;2022-08-11T03:14:36;23.00;88.10
8945;DHT22;4507;40.232;29.132;2022-08-11T03:17:29;23.00;88.00
8945;DHT22;4507;40.232;29.132;2022-08-11T03:20:04;23.10;87.90
8945;DHT22;4507;40.232;29.132;2022-08-11T03:22:36;23.10;87.80
8945;DHT22;4507;40.232;29.132;2022-08-11T03:25:09;23.10;87.80
8945;DHT22;4507;40.232;29.132;2022-08-11T03:27:45;23.10;87.80
8945;DHT22;4507;40.232;29.132;2022-08-11T03:30:41;23.00;87.60
8945;DHT22;4507;40.232;29.132;2022-08-11T03:33:15;23.00;87.50
8945;DHT22;4507;40.232;29.132;2022-08-11T03:36:05;23.00;87.50
8945;DHT22;4507;40.232;29.132;2022-08-11T03:38:42;23.00;87.50
8945;DHT22;4507;40.232;29.132;2022-08-11T03:41:31;23.00;87.70
8945;DHT22;4507;40.232;29.132;2022-08-11T03:44:36;22.90;87.60
8945;DHT22;4507;40.232;29.132;2022-08-11T03:47:11;22.90;87.80
8945;DHT22;4507;40.232;29.132;2022-08-11T03:49:45;22.90;88.00
8945;DHT22;4507;40.232;29.132;2022-08-11T03:52:42;22.90;88.10
8945;DHT22;4507;40.232;29.132;2022-08-11T03:55:14;23.00;88.30
8945;DHT22;4507;40.232;29.132;2022-08-11T04:12:27;23.00;88.50
8945;DHT22;4507;40.232;29.132;2022-08-11T04:15:13;23.10;88.50
8945;DHT22;4507;40.232;29.132;2022-08-11T04:18:24;23.00;88.50
8945;DHT22;4507;40.232;29.132;2022-08-11T04:21:25;23.10;88.60
8945;DHT22;4507;40.232;29.132;2022-08-11T04:24:08;23.10;89.40
8945;DHT22;4507;40.232;29.132;2022-08-11T04:30:04;23.20;88.70
8945;DHT22;4507;40.232;29.132;2022-08-11T04:32:42;23.30;88.70
8945;DHT22;4507;40.232;29.132;2022-08-11T04:35:21;23.30;88.70
8945;DHT22;4507;40.232;29.132;2022-08-11T04:38:15;23.40;88.60
8945;DHT22;4507;40.232;29.132;2022-08-11T04:40:54;23.40;88.40
8945;DHT22;4507;40.232;29.132;2022-08-11T04:46:37;23.50;88.30
8945;DHT22;4507;40.232;29.132;2022-08-11T04:49:18;23.60;88.30
8945;DHT22;4507;40.232;29.132;2022-08-11T04:52:22;23.70;88.20
8945;DHT22;4507;40.232;29.132;2022-08-11T04:55:41;23.70;88.10
8945;DHT22;4507;40.232;29.132;2022-08-11T04:58:36;23.80;88.10
8945;DHT22;4507;40.232;29.132;2022-08-11T05:01:31;23.80;88.10
8945;DHT22;4507;40.232;29.132;2022-08-11T05:04:23;24.00;88.10
8945;DHT22;4507;40.232;29.132;2022-08-11T05:07:19;24.00;88.00
8945;DHT22;4507;40.232;29.132;2022-08-11T05:10:02;24.10;87.90
8945;DHT22;4507;40.232;29.132;2022-08-11T05:12:40;24.20;87.80
8945;DHT22;4507;40.232;29.132;2022-08-11T05:15:11;24.20;87.60
8945;DHT22;4507;40.232;29.132;2022-08-11T05:18:09;24.50;87.70
8945;DHT22;4507;40.232;29.132;2022-08-11T05:21:02;24.40;87.30
8945;DHT22;4507;40.232;29.132;2022-08-11T05:23:51;24.50;87.10
8945;DHT22;4507;40.232;29.132;2022-08-11T05:26:48;24.70;87.10
8945;DHT22;4507;40.232;29.132;2022-08-11T05:30:00;24.70;86.90
8945;DHT22;4507;40.232;29.132;2022-08-11T05:32:59;24.70;86.80
8945;DHT22;4507;40.232;29.132;2022-08-11T05:35:47;24.80;86.70
8945;DHT22;4507;40.232;29.132;2022-08-11T05:38:33;24.90;86.60
8945;DHT22;4507;40.232;29.132;2022-08-11T05:41:22;25.00;86.40
8945;DHT22;4507;40.232;29.132;2022-08-11T05:44:10;25.10;86.40
8945;DHT22;4507;40.232;29.132;2022-08-11T05:47:03;25.20;86.20
8945;DHT22;4507;40.232;29.132;2022-08-11T05:49:51;25.40;86.30
8945;DHT22;4507;40.232;29.132;2022-08-11T05:52:45;25.50;86.00
8945;DHT22;4507;40.232;29.132;2022-08-11T05:55:40;25.60;85.60
8945;DHT22;4507;40.232;29.132;2022-08-11T05:58:33;25.70;85.30
8945;DHT22;4507;40.232;29.132;2022-08-11T06:01:09;25.80;85.00
8945;DHT22;4507;40.232;29.132;2022-08-11T06:03:43;25.90;84.70
8945;DHT22;4507;40.232;29.132;2022-08-11T06:06:29;26.00;83.90
8945;DHT22;4507;40.232;29.132;2022-08-11T06:08:59;26.00;82.90
8945;DHT22;4507;40.232;29.132;2022-08-11T06:11:49;26.20;82.30
8945;DHT22;4507;40.232;29.132;2022-08-11T06:14:19;26.20;81.60
8945;DHT22;4507;40.232;29.132;2022-08-11T06:16:54;26.30;81.20
8945;DHT22;4507;40.232;29.132;2022-08-11T06:19:35;26.30;80.90
8945;DHT22;4507;40.232;29.132;2022-08-11T06:22:09;26.40;80.60
8945;DHT22;4507;40.232;29.132;2022-08-11T06:24:40;26.40;80.40
8945;DHT22;4507;40.232;29.132;2022-08-11T06:27:19;26.50;80.30
8945;DHT22;4507;40.232;29.132;2022-08-11T06:29:50;26.50;79.30
8945;DHT22;4507;40.232;29.132;2022-08-11T06:32:27;26.60;79.20
8945;DHT22;4507;40.232;29.132;2022-08-11T06:35:16;26.60;78.60
8945;DHT22;4507;40.232;29.132;2022-08-11T06:37:58;26.70;78.20
8945;DHT22;4507;40.232;29.132;2022-08-11T06:40:35;26.70;78.10
8945;DHT22;4507;40.232;29.132;2022-08-11T06:43:14;26.80;77.20
8945;DHT22;4507;40.232;29.132;2022-08-11T06:45:52;26.90;76.80
8945;DHT22;4507;40.232;29.132;2022-08-11T06:48:24;26.90;77.30
8945;DHT22;4507;40.232;29.132;2022-08-11T06:50:57;27.00;76.70
8945;DHT22;4507;40.232;29.132;2022-08-11T06:53:44;27.00;76.60
8945;DHT22;4507;40.232;29.132;2022-08-11T06:56:33;27.00;76.40
8945;DHT22;4507;40.232;29.132;2022-08-11T07:00:01;27.10;76.40
8945;DHT22;4507;40.232;29.132;2022-08-11T07:02:51;27.10;76.00
8945;DHT22;4507;40.232;29.132;2022-08-11T07:05:23;27.10;75.80
8945;DHT22;4507;40.232;29.132;2022-08-11T07:08:27;27.20;75.80
8945;DHT22;4507;40.232;29.132;2022-08-11T07:14:50;27.40;74.70
8945;DHT22;4507;40.232;29.132;2022-08-11T07:17:43;27.50;74.00
8945;DHT22;4507;40.232;29.132;2022-08-11T07:20:17;27.50;73.50
8945;DHT22;4507;40.232;29.132;2022-08-11T07:23:06;27.50;73.40
8945;DHT22;4507;40.232;29.132;2022-08-11T07:25:57;27.50;72.90
8945;DHT22;4507;40.232;29.132;2022-08-11T07:28:47;27.60;72.50
8945;DHT22;4507;40.232;29.132;2022-08-11T07:31:33;27.70;71.90
8945;DHT22;4507;40.232;29.132;2022-08-11T07:34:12;27.70;71.40
8945;DHT22;4507;40.232;29.132;2022-08-11T07:36:49;27.70;71.00
8945;DHT22;4507;40.232;29.132;2022-08-11T07:39:20;27.70;71.00
8945;DHT22;4507;40.232;29.132;2022-08-11T07:41:52;27.70;71.00
8945;DHT22;4507;40.232;29.132;2022-08-11T07:44:21;27.70;71.20
8945;DHT22;4507;40.232;29.132;2022-08-11T07:47:00;27.60;71.40
8945;DHT22;4507;40.232;29.132;2022-08-11T07:49:49;27.50;71.80
8945;DHT22;4507;40.232;29.132;2022-08-11T07:52:38;27.40;72.30
8945;DHT22;4507;40.232;29.132;2022-08-11T07:55:12;27.30;72.60
8945;DHT22;4507;40.232;29.132;2022-08-11T07:57:44;27.20;73.40
8945;DHT22;4507;40.232;29.132;2022-08-11T08:00:49;27.20;73.70
8945;DHT22;4507;40.232;29.132;2022-08-11T08:03:48;27.20;73.60
8945;DHT22;4507;40.232;29.132;2022-08-11T08:06:38;27.20;74.70
8945;DHT22;4507;40.232;29.132;2022-08-11T08:09:25;27.20;75.90
8945;DHT22;4507;40.232;29.132;2022-08-11T08:12:15;27.20;76.70
8945;DHT22;4507;40.232;29.132;2022-08-11T08:15:07;27.20;78.00
8945;DHT22;4507;40.232;29.132;2022-08-11T08:18:13;27.20;78.70
8945;DHT22;4507;40.232;29.132;2022-08-11T08:20:55;27.10;79.00
8945;DHT22;4507;40.232;29.132;2022-08-11T08:23:43;27.10;79.30
8945;DHT22;4507;40.232;29.132;2022-08-11T08:26:14;27.00;79.40
8945;DHT22;4507;40.232;29.132;2022-08-11T08:29:02;27.00;80.10
8945;DHT22;4507;40.232;29.132;2022-08-11T08:31:47;27.00;81.30
8945;DHT22;4507;40.232;29.132;2022-08-11T08:34:17;27.10;82.00
8945;DHT22;4507;40.232;29.132;2022-08-11T08:36:48;27.20;82.40
8945;DHT22;4507;40.232;29.132;2022-08-11T08:39:20;27.30;82.40
8945;DHT22;4507;40.232;29.132;2022-08-11T08:41:54;27.50;81.80
8945;DHT22;4507;40.232;29.132;2022-08-11T08:44:24;27.60;81.40
8945;DHT22;4507;40.232;29.132;2022-08-11T08:47:08;27.80;81.50
8945;DHT22;4507;40.232;29.132;2022-08-11T08:49:59;27.90;80.80
8945;DHT22;4507;40.232;29.132;2022-08-11T08:52:33;28.00;80.50
8945;DHT22;4507;40.232;29.132;2022-08-11T08:55:18;28.20;80.70
8945;DHT22;4507;40.232;29.132;2022-08-11T08:57:49;28.30;80.60
8945;DHT22;4507;40.232;29.132;2022-08-11T09:00:23;28.50;80.60
8945;DHT22;4507;40.232;29.132;2022-08-11T09:02:52;28.70;78.90
8945;DHT22;4507;40.232;29.132;2022-08-11T09:05:21;28.80;77.90
8945;DHT22;4507;40.232;29.132;2022-08-11T09:08:12;28.90;77.20
8945;DHT22;4507;40.232;29.132;2022-08-11T09:11:22;29.00;75.70
8945;DHT22;4507;40.232;29.132;2022-08-11T09:14:33;29.10;73.80
8945;DHT22;4507;40.232;29.132;2022-08-11T09:17:17;29.30;73.10
8945;DHT22;4507;40.232;29.132;2022-08-11T09:19:47;29.40;72.20
8945;DHT22;4507;40.232;29.132;2022-08-11T09:22:23;29.30;71.30
8945;DHT22;4507;40.232;29.132;2022-08-11T09:25:11;29.30;70.60
8945;DHT22;4507;40.232;29.132;2022-08-11T09:27:59;29.40;70.00
8945;DHT22;4507;40.232;29.132;2022-08-11T09:30:30;29.40;69.30
8945;DHT22;4507;40.232;29.132;2022-08-11T09:33:01;29.50;69.80
8945;DHT22;4507;40.232;29.132;2022-08-11T09:35:34;29.60;69.80
8945;DHT22;4507;40.232;29.132;2022-08-11T09:38:05;29.70;69.10
8945;DHT22;4507;40.232;29.132;2022-08-11T09:40:53;29.90;68.60
8945;DHT22;4507;40.232;29.132;2022-08-11T09:43:26;30.00;67.90
8945;DHT22;4507;40.232;29.132;2022-08-11T09:46:13;30.20;67.70
8945;DHT22;4507;40.232;29.132;2022-08-11T09:48:44;30.40;67.10
8945;DHT22;4507;40.232;29.132;2022-08-11T09:51:14;30.50;66.50
8945;DHT22;4507;40.232;29.132;2022-08-11T09:53:45;30.60;64.80
8945;DHT22;4507;40.232;29.132;2022-08-11T09:56:51;30.80;64.20
8945;DHT22;4507;40.232;29.132;2022-08-11T09:59:39;30.90;63.40
8945;DHT22;4507;40.232;29.132;2022-08-11T10:02:09;30.90;63.00
8945;DHT22;4507;40.232;29.132;2022-08-11T10:04:40;31.00;63.20
8945;DHT22;4507;40.232;29.132;2022-08-11T10:07:13;31.20;63.40
8945;DHT22;4507;40.232;29.132;2022-08-11T10:09:45;31.30;63.00
8945;DHT22;4507;40.232;29.132;2022-08-11T10:12:23;31.50;62.40
8945;DHT22;4507;40.232;29.132;2022-08-11T10:15:00;31.60;61.00
8945;DHT22;4507;40.232;29.132;2022-08-11T10:17:54;31.70;60.40
8945;DHT22;4507;40.232;29.132;2022-08-11T10:20:44;31.80;59.80
8945;DHT22;4507;40.232;29.132;2022-08-11T10:23:17;31.90;59.00
8945;DHT22;4507;40.232;29.132;2022-08-11T10:26:26;32.00;58.60
8945;DHT22;4507;40.232;29.132;2022-08-11T10:29:14;32.10;58.50
8945;DHT22;4507;40.232;29.132;2022-08-11T10:32:13;32.20;57.90
8945;DHT22;4507;40.232;29.132;2022-08-11T10:35:11;32.20;57.40
8945;DHT22;4507;40.232;29.132;2022-08-11T10:37:43;32.30;56.70
8945;DHT22;4507;40.232;29.132;2022-08-11T10:40:52;32.20;56.50
8945;DHT22;4507;40.232;29.132;2022-08-11T10:43:38;32.40;56.40
8945;DHT22;4507;40.232;29.132;2022-08-11T10:46:47;32.50;56.50
8945;DHT22;4507;40.232;29.132;2022-08-11T10:49:36;32.70;56.70
8945;DHT22;4507;40.232;29.132;2022-08-11T10:52:06;32.80;56.70
8945;DHT22;4507;40.232;29.132;2022-08-11T10:54:53;32.90;56.50
8945;DHT22;4507;40.232;29.132;2022-08-11T10:57:40;33.00;55.90
8945;DHT22;4507;40.232;29.132;2022-08-11T11:00:32;33.20;55.10
8945;DHT22;4507;40.232;29.132;2022-08-11T11:03:01;33.20;55.30
8945;DHT22;4507;40.232;29.132;2022-08-11T11:05:52;33.30;55.10
8945;DHT22;4507;40.232;29.132;2022-08-11T11:08:45;33.40;55.00
8945;DHT22;4507;40.232;29.132;2022-08-11T11:11:28;33.60;54.80
8945;DHT22;4507;40.232;29.132;2022-08-11T11:14:15;33.80;53.90
8945;DHT22;4507;40.232;29.132;2022-08-11T11:17:13;33.80;53.60
8945;DHT22;4507;40.232;29.132;2022-08-11T11:20:02;33.70;53.30
8945;DHT22;4507;40.232;29.132;2022-08-11T11:22:33;33.80;53.10
8945;DHT22;4507;40.232;29.132;2022-08-11T11:25:26;34.10;52.00
8945;DHT22;4507;40.232;29.132;2022-08-11T11:28:18;34.40;51.70
8945;DHT22;4507;40.232;29.132;2022-08-11T11:31:01;34.70;51.20
8945;DHT22;4507;40.232;29.132;2022-08-11T11:33:54;34.70;50.90
8945;DHT22;4507;40.232;29.132;2022-08-11T11:36:44;34.70;51.60
8945;DHT22;4507;40.232;29.132;2022-08-11T11:39:19;34.70;51.50
8945;DHT22;4507;40.232;29.132;2022-08-11T11:41:52;34.70;51.50
8945;DHT22;4507;40.232;29.132;2022-08-11T11:44:22;34.70;50.60
8945;DHT22;4507;40.232;29.132;2022-08-11T11:46:51;34.80;50.20
8945;DHT22;4507;40.232;29.132;2022-08-11T11:49:24;34.80;49.70
8945;DHT22;4507;40.232;29.132;2022-08-11T11:51:55;34.70;49.70
8945;DHT22;4507;40.232;29.132;2022-08-11T11:54:30;34.60;49.70
8945;DHT22;4507;40.232;29.132;2022-08-11T11:57:20;34.30;49.40
8945;DHT22;4507;40.232;29.132;2022-08-11T12:00:08;34.00;50.30
8945;DHT22;4507;40.232;29.132;2022-08-11T12:03:02;33.70;50.60
8945;DHT22;4507;40.232;29.132;2022-08-11T12:05:34;33.40;51.00
8945;DHT22;4507;40.232;29.132;2022-08-11T12:08:04;33.10;51.40
8945;DHT22;4507;40.232;29.132;2022-08-11T12:10:46;32.70;51.90
8945;DHT22;4507;40.232;29.132;2022-08-11T12:13:16;32.40;52.60
8945;DHT22;4507;40.232;29.132;2022-08-11T12:16:04;32.00;53.20
8945;DHT22;4507;40.232;29.132;2022-08-11T12:18:55;31.80;54.00
8945;DHT22;4507;40.232;29.132;2022-08-11T12:21:26;31.60;54.30
8945;DHT22;4507;40.232;29.132;2022-08-11T12:24:01;31.40;54.90
8945;DHT22;4507;40.232;29.132;2022-08-11T12:26:53;31.30;55.10
8945;DHT22;4507;40.232;29.132;2022-08-11T12:30:04;31.10;55.40
8945;DHT22;4507;40.232;29.132;2022-08-11T12:32:36;30.90;55.40
8945;DHT22;4507;40.232;29.132;2022-08-11T12:35:07;30.90;56.00
8945;DHT22;4507;40.232;29.132;2022-08-11T12:37:39;31.10;56.30
8945;DHT22;4507;40.232;29.132;2022-08-11T12:40:28;31.40;56.30
8945;DHT22;4507;40.232;29.132;2022-08-11T12:43:36;31.90;56.30
8945;DHT22;4507;40.232;29.132;2022-08-11T12:46:27;32.50;55.00
8945;DHT22;4507;40.232;29.132;2022-08-11T12:49:01;32.90;54.10
8945;DHT22;4507;40.232;29.132;2022-08-11T12:51:53;33.40;52.70
8945;DHT22;4507;40.232;29.132;2022-08-11T12:54:47;33.70;52.00
8945;DHT22;4507;40.232;29.132;2022-08-11T12:57:31;33.90;51.40
8945;DHT22;4507;40.232;29.132;2022-08-11T13:00:21;34.10;51.10
8945;DHT22;4507;40.232;29.132;2022-08-11T13:03:09;34.30;50.60
8945;DHT22;4507;40.232;29.132;2022-08-11T13:05:58;34.70;50.00
8945;DHT22;4507;40.232;29.132;2022-08-11T13:08:32;35.00;49.00
8945;DHT22;4507;40.232;29.132;2022-08-11T13:11:02;35.20;48.00
8945;DHT22;4507;40.232;29.132;2022-08-11T13:14:08;35.40;47.20
8945;DHT22;4507;40.232;29.132;2022-08-11T13:16:44;35.50;46.90
8945;DHT22;4507;40.232;29.132;2022-08-11T13:19:31;35.60;46.80
8945;DHT22;4507;40.232;29.132;2022-08-11T13:22:01;35.50;46.30
8945;DHT22;4507;40.232;29.132;2022-08-11T13:24:35;35.40;46.70
8945;DHT22;4507;40.232;29.132;2022-08-11T13:27:05;35.30;46.40
8945;DHT22;4507;40.232;29.132;2022-08-11T13:29:35;35.20;46.00
8945;DHT22;4507;40.232;29.132;2022-08-11T13:32:06;35.10;46.10
8945;DHT22;4507;40.232;29.132;2022-08-11T13:34:35;34.60;45.60
8945;DHT22;4507;40.232;29.132;2022-08-11T13:37:09;34.00;46.00
8945;DHT22;4507;40.232;29.132;2022-08-11T13:39:43;33.50;47.00
8945;DHT22;4507;40.232;29.132;2022-08-11T13:42:15;33.00;47.80
8945;DHT22;4507;40.232;29.132;2022-08-11T13:44:47;32.50;48.40
8945;DHT22;4507;40.232;29.132;2022-08-11T13:47:18;32.10;49.30
8945;DHT22;4507;40.232;29.132;2022-08-11T13:50:09;31.70;50.20
8945;DHT22;4507;40.232;29.132;2022-08-11T13:52:40;31.50;51.20
8945;DHT22;4507;40.232;29.132;2022-08-11T13:55:29;31.30;51.80
8945;DHT22;4507;40.232;29.132;2022-08-11T13:58:18;31.10;52.10
8945;DHT22;4507;40.232;29.132;2022-08-11T14:01:07;31.00;52.80
8945;DHT22;4507;40.232;29.132;2022-08-11T14:04:03;31.00;53.50
8945;DHT22;4507;40.232;29.132;2022-08-11T14:06:54;30.90;53.60
8945;DHT22;4507;40.232;29.132;2022-08-11T14:09:29;30.90;53.90
8945;DHT22;4507;40.232;29.132;2022-08-11T14:12:03;30.80;54.00
8945;DHT22;4507;40.232;29.132;2022-08-11T14:14:59;30.80;54.20
8945;DHT22;4507;40.232;29.132;2022-08-11T14:17:35;30.70;54.40
8945;DHT22;4507;40.232;29.132;2022-08-11T14:20:19;30.70;54.70
8945;DHT22;4507;40.232;29.132;2022-08-11T14:23:07;30.60;54.90
8945;DHT22;4507;40.232;29.132;2022-08-11T14:25:39;30.50;55.10
8945;DHT22;4507;40.232;29.132;2022-08-11T14:28:32;30.60;55.40
8945;DHT22;4507;40.232;29.132;2022-08-11T14:31:12;30.40;55.80
8945;DHT22;4507;40.232;29.132;2022-08-11T14:33:43;30.50;56.10
8945;DHT22;4507;40.232;29.132;2022-08-11T14:36:32;30.50;56.00
8945;DHT22;4507;40.232;29.132;2022-08-11T14:39:04;30.50;55.70
8945;DHT22;4507;40.232;29.132;2022-08-11T14:41:35;30.50;56.00
8945;DHT22;4507;40.232;29.132;2022-08-11T14:44:43;30.40;56.00
8945;DHT22;4507;40.232;29.132;2022-08-11T14:47:32;30.40;56.10
8945;DHT22;4507;40.232;29.132;2022-08-11T14:50:02;30.20;56.20
8945;DHT22;4507;40.232;29.132;2022-08-11T14:52:47;30.10;56.30
8945;DHT22;4507;40.232;29.132;2022-08-11T14:55:18;30.10;56.70
8945;DHT22;4507;40.232;29.132;2022-08-11T14:58:07;30.00;56.80
8945;DHT22;4507;40.232;29.132;2022-08-11T15:00:37;29.90;57.20
8945;DHT22;4507;40.232;29.132;2022-08-11T15:03:07;29.80;57.90
8945;DHT22;4507;40.232;29.132;2022-08-11T15:05:40;29.80;57.60
8945;DHT22;4507;40.232;29.132;2022-08-11T15:08:26;29.80;57.60
8945;DHT22;4507;40.232;29.132;2022-08-11T15:11:16;29.70;57.70
8945;DHT22;4507;40.232;29.132;2022-08-11T15:14:05;29.70;57.80
8945;DHT22;4507;40.232;29.132;2022-08-11T15:16:37;29.70;58.00
8945;DHT22;4507;40.232;29.132;2022-08-11T15:19:25;29.60;58.10
8945;DHT22;4507;40.232;29.132;2022-08-11T15:22:08;29.60;58.10
8945;DHT22;4507;40.232;29.132;2022-08-11T15:24:58;29.50;58.00
8945;DHT22;4507;40.232;29.132;2022-08-11T15:27:29;29.50;58.10
8945;DHT22;4507;40.232;29.132;2022-08-11T15:30:19;29.50;58.30
8945;DHT22;4507;40.232;29.132;2022-08-11T15:33:08;29.50;58.60
8945;DHT22;4507;40.232;29.132;2022-08-11T15:35:55;29.40;58.90
8945;DHT22;4507;40.232;29.132;2022-08-11T15:38:48;29.40;59.30
8945;DHT22;4507;40.232;29.132;2022-08-11T15:41:27;29.40;59.60
8945;DHT22;4507;40.232;29.132;2022-08-11T15:44:30;29.30;59.70
8945;DHT22;4507;40.232;29.132;2022-08-11T15:47:40;29.30;59.80
8945;DHT22;4507;40.232;29.132;2022-08-11T15:50:15;29.20;59.80
8945;DHT22;4507;40.232;29.132;2022-08-11T15:52:51;29.20;60.00
8945;DHT22;4507;40.232;29.132;2022-08-11T15:55:22;29.20;60.20
8945;DHT22;4507;40.232;29.132;2022-08-11T15:57:54;29.10;60.10
8945;DHT22;4507;40.232;29.132;2022-08-11T16:00:45;29.10;60.20
8945;DHT22;4507;40.232;29.132;2022-08-11T16:03:44;29.00;60.40
8945;DHT22;4507;40.232;29.132;2022-08-11T16:06:38;29.00;60.60
8945;DHT22;4507;40.232;29.132;2022-08-11T16:09:21;28.90;60.70
8945;DHT22;4507;40.232;29.132;2022-08-11T16:11:56;28.80;61.00
8945;DHT22;4507;40.232;29.132;2022-08-11T16:14:32;28.80;62.20
8945;DHT22;4507;40.232;29.132;2022-08-11T16:17:20;28.80;62.00
8945;DHT22;4507;40.232;29.132;2022-08-11T16:19:53;28.70;62.20
8945;DHT22;4507;40.232;29.132;2022-08-11T16:22:25;28.70;62.50
8945;DHT22;4507;40.232;29.132;2022-08-11T16:25:05;28.60;62.70
8945;DHT22;4507;40.232;29.132;2022-08-11T16:27:58;28.60;62.90
8945;DHT22;4507;40.232;29.132;2022-08-11T16:30:31;28.50;63.10
8945;DHT22;4507;40.232;29.132;2022-08-11T16:33:02;28.50;63.40
8945;DHT22;4507;40.232;29.132;2022-08-11T16:36:12;28.40;63.60
8945;DHT22;4507;40.232;29.132;2022-08-11T16:39:00;28.30;63.80
8945;DHT22;4507;40.232;29.132;2022-08-11T16:41:32;28.20;63.90
8945;DHT22;4507;40.232;29.132;2022-08-11T16:44:21;28.20;64.10
8945;DHT22;4507;40.232;29.132;2022-08-11T16:47:13;28.10;64.20
8945;DHT22;4507;40.232;29.132;2022-08-11T16:49:46;28.00;64.30
8945;DHT22;4507;40.232;29.132;2022-08-11T16:52:19;27.90;64.40
8945;DHT22;4507;40.232;29.132;2022-08-11T16:54:49;27.80;64.50
8945;DHT22;4507;40.232;29.132;2022-08-11T16:57:23;27.80;65.20
8945;DHT22;4507;40.232;29.132;2022-08-11T17:00:11;27.70;65.50
8945;DHT22;4507;40.232;29.132;2022-08-11T17:02:44;27.60;66.10
8945;DHT22;4507;40.232;29.132;2022-08-11T17:05:31;27.50;66.60
8945;DHT22;4507;40.232;29.132;2022-08-11T17:08:24;27.40;67.00
8945;DHT22;4507;40.232;29.132;2022-08-11T17:11:24;27.20;67.10
8945;DHT22;4507;40.232;29.132;2022-08-11T17:14:13;27.10;67.60
8945;DHT22;4507;40.232;29.132;2022-08-11T17:17:03;27.00;68.10
8945;DHT22;4507;40.232;29.132;2022-08-11T17:19:36;26.90;68.30
8945;DHT22;4507;40.232;29.132;2022-08-11T17:22:29;26.80;68.60
8945;DHT22;4507;40.232;29.132;2022-08-11T17:25:16;26.70;69.00
8945;DHT22;4507;40.232;29.132;2022-08-11T17:27:50;26.60;69.10
8945;DHT22;4507;40.232;29.132;2022-08-11T17:30:24;26.60;69.40
8945;DHT22;4507;40.232;29.132;2022-08-11T17:33:14;26.50;69.70
8945;DHT22;4507;40.232;29.132;2022-08-11T17:36:03;26.50;70.20
8945;DHT22;4507;40.232;29.132;2022-08-11T17:38:34;26.40;70.20
8945;DHT22;4507;40.232;29.132;2022-08-11T17:41:04;26.30;70.20
8945;DHT22;4507;40.232;29.132;2022-08-11T17:43:52;26.30;70.70
8945;DHT22;4507;40.232;29.132;2022-08-11T17:46:41;26.30;71.10
8945;DHT22;4507;40.232;29.132;2022-08-11T17:49:34;26.20;71.40
8945;DHT22;4507;40.232;29.132;2022-08-11T17:52:08;26.20;71.60
8945;DHT22;4507;40.232;29.132;2022-08-11T17:55:03;26.20;71.70
8945;DHT22;4507;40.232;29.132;2022-08-11T17:58:11;26.10;71.70
8945;DHT22;4507;40.232;29.132;2022-08-11T18:00:58;26.10;72.00
8945;DHT22;4507;40.232;29.132;2022-08-11T18:03:37;26.10;72.20
8945;DHT22;4507;40.232;29.132;2022-08-11T18:06:23;26.00;72.30
8945;DHT22;4507;40.232;29.132;2022-08-11T18:09:06;26.00;72.50
8945;DHT22;4507;40.232;29.132;2022-08-11T18:11:53;26.00;72.60
8945;DHT22;4507;40.232;29.132;2022-08-11T18:14:41;26.00;72.80